West College Corner, Indiana
Current Conditions -  °F | °C
As of 5:55 PM on Friday 19 Dec 2014 (Local Time) from KI67 Reporting Station
Overcast Overcast  
Wind Chill: 32°   Ceiling: 2600
Heat Index: 32°   Visibility: 10mi
Dew Point: 21°   Wind: 0mph
Humidity: 64%   Direction: NA
Pressure: 30.32"   Gusts: NA
Location:  39.57°N, 84.82°W
Report Text: KI67 192255Z AUTO 00000KT 10SM OVC026 00/M06 A3032 RMK AO1
Loading
Personal Weather Stations






























Interactive Weather Map New forecast layout! Learn more

10-Day Weather Forecast

Advertisements
Track Severe Weather on mobile